PWSweather.com
Personal Weather Stations
Station Observations
KVAGLENALL
West Henrico, Glen Allen, VA 23060-6503

West HenricoGlen Allen, VA 23060-6503

Lat: 37.6554, Lon: -77.5693

Elevation: 273

Station Type: Davis Vantage Pro II

www.glenallenweather.com

High Low Average
Temperature 56.5°F13.6°C 27.7°F-2.4°C 39.1°F3.9°C
Dew Point 37.1°F2.8°C 19.5°F-6.9°C 29.0°F-1.7°C
Winds 10.0 mph 16.1 kmh Calm Calm 4.0 mph S6.4 kmh S
Wind Gusts 14.1 mph22.7 kmh 1.0 mph1.6 kmh 6.0 mph9.7 kmh
Humidity 85% 43% 69%
Pressure 30.46 in1031.5 mb 30.28 in1025.4 mb -
Precipitation 0.00 in0.0 mm - -
Hour Temp Dew Point Humidity Winds Wind Gusts Pressure Precip Precip Rate Daily Precip Total
12:00 AM 29.0°F-1.7°C 19.5°F-6.9°C 67% 2.0 mph SSE3.2 kmh SSE 5.1 mph8.2 kmh 30.29 in1025.7 mb 0.00 in0.0 mm 0.00 in0.0 mm 0.00 in0.0 mm
12:15 AM 29.0°F-1.7°C 19.5°F-6.9°C 67% 3.0 mph SE4.8 kmh SE 8.1 mph13.0 kmh 30.29 in1025.7 mb 0.00 in0.0 mm 0.00 in0.0 mm 0.00 in0.0 mm
12:30 AM 28.9°F-1.7°C 20.1°F-6.6°C 69% 4.0 mph S6.4 kmh S 5.1 mph8.2 kmh 30.29 in1025.7 mb 0.00 in0.0 mm 0.00 in0.0 mm 0.00 in0.0 mm
12:45 AM 28.9°F-1.7°C 20.4°F-6.4°C 70% 2.0 mph SSE3.2 kmh SSE 2.0 mph3.2 kmh 30.30 in1026.1 mb 0.00 in0.0 mm 0.00 in0.0 mm 0.00 in0.0 mm
01:00 AM 29.0°F-1.7°C 20.5°F-6.4°C 70% 3.0 mph SE4.8 kmh SE 6.1 mph9.8 kmh 30.29 in1025.7 mb 0.00 in0.0 mm 0.00 in0.0 mm 0.00 in0.0 mm
01:15 AM 29.3°F-1.5°C 21.4°F-5.9°C 72% 5.0 mph SSW8.0 kmh SSW 5.1 mph8.2 kmh 30.30 in1026.1 mb 0.00 in0.0 mm 0.00 in0.0 mm 0.00 in0.0 mm
01:30 AM 29.2°F-1.6°C 21.6°F-5.8°C 73% 2.0 mph S3.2 kmh S 4.0 mph6.4 kmh 30.30 in1026.1 mb 0.00 in0.0 mm 0.00 in0.0 mm 0.00 in0.0 mm
01:45 AM 28.8°F-1.8°C 21.6°F-5.8°C 74% 2.0 mph S3.2 kmh S 6.1 mph9.8 kmh 30.29 in1025.7 mb 0.00 in0.0 mm 0.00 in0.0 mm 0.00 in0.0 mm
02:00 AM 28.8°F-1.8°C 21.9°F-5.6°C 75% 2.0 mph S3.2 kmh S 7.1 mph11.4 kmh 30.30 in1026.1 mb 0.00 in0.0 mm 0.00 in0.0 mm 0.00 in0.0 mm
02:15 AM 29.0°F-1.7°C 22.4°F-5.3°C 76% 1.0 mph S1.6 kmh S 4.0 mph6.4 kmh 30.30 in1026.1 mb 0.00 in0.0 mm 0.00 in0.0 mm 0.00 in0.0 mm
02:30 AM 29.2°F-1.6°C 23.2°F-4.9°C 78% 2.0 mph SSW3.2 kmh SSW 7.1 mph11.4 kmh 30.30 in1026.1 mb 0.00 in0.0 mm 0.00 in0.0 mm 0.00 in0.0 mm
02:45 AM 29.4°F-1.4°C 23.4°F-4.8°C 78% 6.0 mph S9.7 kmh S 7.1 mph11.4 kmh 30.29 in1025.7 mb 0.00 in0.0 mm 0.00 in0.0 mm 0.00 in0.0 mm
03:00 AM 29.6°F-1.3°C 23.2°F-4.9°C 77% 4.0 mph S6.4 kmh S 8.1 mph13.0 kmh 30.29 in1025.7 mb 0.00 in0.0 mm 0.00 in0.0 mm 0.00 in0.0 mm
03:15 AM 29.7°F-1.3°C 23.3°F-4.8°C 77% 4.0 mph S6.4 kmh S 7.1 mph11.4 kmh 30.30 in1026.1 mb 0.00 in0.0 mm 0.00 in0.0 mm 0.00 in0.0 mm
03:30 AM 29.8°F-1.2°C 23.4°F-4.8°C 77% 2.0 mph S3.2 kmh S 6.1 mph9.8 kmh 30.29 in1025.7 mb 0.00 in0.0 mm 0.00 in0.0 mm 0.00 in0.0 mm
03:45 AM 29.9°F-1.2°C 23.8°F-4.6°C 78% 6.0 mph S9.7 kmh S 7.1 mph11.4 kmh 30.28 in1025.4 mb 0.00 in0.0 mm 0.00 in0.0 mm 0.00 in0.0 mm
04:00 AM 29.9°F-1.2°C 23.8°F-4.6°C 78% 4.0 mph SSE6.4 kmh SSE 7.1 mph11.4 kmh 30.29 in1025.7 mb 0.00 in0.0 mm 0.00 in0.0 mm 0.00 in0.0 mm
04:15 AM 29.8°F-1.2°C 23.7°F-4.6°C 78% 3.0 mph SE4.8 kmh SE 7.1 mph11.4 kmh 30.28 in1025.4 mb 0.00 in0.0 mm 0.00 in0.0 mm 0.00 in0.0 mm
04:30 AM 29.7°F-1.3°C 23.6°F-4.7°C 78% 6.0 mph SSE9.7 kmh SSE 6.1 mph9.8 kmh 30.28 in1025.4 mb 0.00 in0.0 mm 0.00 in0.0 mm 0.00 in0.0 mm
04:45 AM 29.5°F-1.4°C 23.8°F-4.6°C 79% 3.0 mph SSE4.8 kmh SSE 6.1 mph9.8 kmh 30.29 in1025.7 mb 0.00 in0.0 mm 0.00 in0.0 mm 0.00 in0.0 mm
05:00 AM 29.5°F-1.4°C 23.8°F-4.6°C 79% 2.0 mph S3.2 kmh S 5.1 mph8.2 kmh 30.30 in1026.1 mb 0.00 in0.0 mm 0.00 in0.0 mm 0.00 in0.0 mm
05:15 AM 28.9°F-1.7°C 23.6°F-4.7°C 80% 2.0 mph S3.2 kmh S 6.1 mph9.8 kmh 30.30 in1026.1 mb 0.00 in0.0 mm 0.00 in0.0 mm 0.00 in0.0 mm
05:30 AM 28.7°F-1.8°C 23.7°F-4.6°C 81% 2.0 mph SSE3.2 kmh SSE 4.0 mph6.4 kmh 30.29 in1025.7 mb 0.00 in0.0 mm 0.00 in0.0 mm 0.00 in0.0 mm
05:45 AM 28.7°F-1.8°C 23.7°F-4.6°C 81% 2.0 mph S3.2 kmh S 5.1 mph8.2 kmh 30.29 in1025.7 mb 0.00 in0.0 mm 0.00 in0.0 mm 0.00 in0.0 mm
06:00 AM 28.5°F-1.9°C 23.8°F-4.6°C 82% 5.0 mph SSW8.0 kmh SSW 6.1 mph9.8 kmh 30.30 in1026.1 mb 0.00 in0.0 mm 0.00 in0.0 mm 0.00 in0.0 mm
06:15 AM 28.6°F-1.9°C 23.9°F-4.5°C 82% 1.0 mph S1.6 kmh S 4.0 mph6.4 kmh 30.30 in1026.1 mb 0.00 in0.0 mm 0.00 in0.0 mm 0.00 in0.0 mm
06:30 AM 28.2°F-2.1°C 23.8°F-4.6°C 83% 1.0 mph S1.6 kmh S 3.0 mph4.8 kmh 30.30 in1026.1 mb 0.00 in0.0 mm 0.00 in0.0 mm 0.00 in0.0 mm
06:45 AM 27.9°F-2.3°C 23.5°F-4.7°C 83% 1.0 mph S1.6 kmh S 4.0 mph6.4 kmh 30.31 in1026.4 mb 0.00 in0.0 mm 0.00 in0.0 mm 0.00 in0.0 mm
07:00 AM 27.9°F-2.3°C 23.7°F-4.6°C 84% 5.0 mph SSW8.0 kmh SSW 5.1 mph8.2 kmh 30.31 in1026.4 mb 0.00 in0.0 mm 0.00 in0.0 mm 0.00 in0.0 mm
07:15 AM 28.0°F-2.2°C 23.8°F-4.6°C 84% 1.0 mph SSW1.6 kmh SSW 4.0 mph6.4 kmh 30.32 in1026.8 mb 0.00 in0.0 mm 0.00 in0.0 mm 0.00 in0.0 mm
07:30 AM 27.7°F-2.4°C 23.8°F-4.6°C 85% 3.0 mph SSW4.8 kmh SSW 4.0 mph6.4 kmh 30.33 in1027.1 mb 0.00 in0.0 mm 0.00 in0.0 mm 0.00 in0.0 mm
07:45 AM 28.8°F-1.8°C 24.9°F-3.9°C 85% Calm Calm 2.0 mph3.2 kmh 30.33 in1027.1 mb 0.00 in0.0 mm 0.00 in0.0 mm 0.00 in0.0 mm
08:00 AM 30.0°F-1.1°C 25.7°F-3.5°C 84% 3.0 mph S4.8 kmh S 3.0 mph4.8 kmh 30.34 in1027.4 mb 0.00 in0.0 mm 0.00 in0.0 mm 0.00 in0.0 mm
08:15 AM 30.8°F-0.7°C 26.2°F-3.2°C 83% 2.0 mph S3.2 kmh S 2.0 mph3.2 kmh 30.33 in1027.1 mb 0.00 in0.0 mm 0.00 in0.0 mm 0.00 in0.0 mm
08:30 AM 31.2°F-0.4°C 26.3°F-3.2°C 82% Calm Calm 4.0 mph6.4 kmh 30.34 in1027.4 mb 0.00 in0.0 mm 0.00 in0.0 mm 0.00 in0.0 mm
08:45 AM 31.8°F-0.1°C 26.9°F-2.8°C 82% 4.0 mph S6.4 kmh S 5.1 mph8.2 kmh 30.35 in1027.8 mb 0.00 in0.0 mm 0.00 in0.0 mm 0.00 in0.0 mm
09:00 AM 32.7°F0.4°C 27.5°F-2.5°C 81% 2.0 mph SW3.2 kmh SW 4.0 mph6.4 kmh 30.35 in1027.8 mb 0.00 in0.0 mm 0.00 in0.0 mm 0.00 in0.0 mm
09:15 AM 34.6°F1.4°C 29.1°F-1.6°C 80% 6.0 mph SW9.7 kmh SW 9.1 mph14.6 kmh 30.35 in1027.8 mb 0.00 in0.0 mm 0.00 in0.0 mm 0.00 in0.0 mm
09:30 AM 35.3°F1.8°C 30.3°F-0.9°C 82% 2.0 mph SW3.2 kmh SW 7.1 mph11.4 kmh 30.35 in1027.8 mb 0.00 in0.0 mm 0.00 in0.0 mm 0.00 in0.0 mm
09:45 AM 36.8°F2.7°C 32.1°F0.1°C 83% 2.0 mph SW3.2 kmh SW 7.1 mph11.4 kmh 30.35 in1027.8 mb 0.00 in0.0 mm 0.00 in0.0 mm 0.00 in0.0 mm
10:00 AM 37.7°F3.2°C 32.7°F0.4°C 82% 9.0 mph SSW14.5 kmh SSW 12.1 mph19.5 kmh 30.35 in1027.8 mb 0.00 in0.0 mm 0.00 in0.0 mm 0.00 in0.0 mm
10:15 AM 39.1°F3.9°C 33.8°F1.0°C 81% 9.0 mph SSW14.5 kmh SSW 14.1 mph22.7 kmh 30.35 in1027.8 mb 0.00 in0.0 mm 0.00 in0.0 mm 0.00 in0.0 mm
10:30 AM 40.0°F4.4°C 34.3°F1.3°C 80% 7.0 mph SSW11.3 kmh SSW 9.1 mph14.6 kmh 30.35 in1027.8 mb 0.00 in0.0 mm 0.00 in0.0 mm 0.00 in0.0 mm
10:45 AM 40.7°F4.8°C 34.4°F1.3°C 78% 6.0 mph SSW9.7 kmh SSW 12.1 mph19.5 kmh 30.35 in1027.8 mb 0.00 in0.0 mm 0.00 in0.0 mm 0.00 in0.0 mm
11:00 AM 41.3°F5.2°C 34.0°F1.1°C 75% 6.0 mph SW9.7 kmh SW 10.1 mph16.3 kmh 30.35 in1027.8 mb 0.00 in0.0 mm 0.00 in0.0 mm 0.00 in0.0 mm
11:15 AM 42.6°F5.9°C 34.6°F1.4°C 73% 4.0 mph SW6.4 kmh SW 9.1 mph14.6 kmh 30.36 in1028.1 mb 0.00 in0.0 mm 0.00 in0.0 mm 0.00 in0.0 mm
11:30 AM 45.6°F7.6°C 35.7°F2.1°C 68% 7.0 mph SW11.3 kmh SW 14.1 mph22.7 kmh 30.35 in1027.8 mb 0.00 in0.0 mm 0.00 in0.0 mm 0.00 in0.0 mm
11:45 AM 48.2°F9.0°C 37.0°F2.8°C 65% 5.0 mph SSW8.0 kmh SSW 6.1 mph9.8 kmh 30.35 in1027.8 mb 0.00 in0.0 mm 0.00 in0.0 mm 0.00 in0.0 mm
12:00 PM 50.0°F10.0°C 37.1°F2.8°C 61% 6.0 mph SW9.7 kmh SW 6.1 mph9.8 kmh 30.35 in1027.8 mb 0.00 in0.0 mm 0.00 in0.0 mm 0.00 in0.0 mm
12:15 PM 51.1°F10.6°C 36.4°F2.4°C 57% 5.0 mph SW8.0 kmh SW 9.1 mph14.6 kmh 30.34 in1027.4 mb 0.00 in0.0 mm 0.00 in0.0 mm 0.00 in0.0 mm
12:30 PM 50.8°F10.4°C 34.7°F1.5°C 54% 4.0 mph SW6.4 kmh SW 8.1 mph13.0 kmh 30.34 in1027.4 mb 0.00 in0.0 mm 0.00 in0.0 mm 0.00 in0.0 mm
12:45 PM 51.3°F10.7°C 36.1°F2.3°C 56% 6.0 mph SW9.7 kmh SW 7.1 mph11.4 kmh 30.33 in1027.1 mb 0.00 in0.0 mm 0.00 in0.0 mm 0.00 in0.0 mm
01:00 PM 52.8°F11.6°C 35.2°F1.8°C 51% 2.0 mph W3.2 kmh W 5.1 mph8.2 kmh 30.33 in1027.1 mb 0.00 in0.0 mm 0.00 in0.0 mm 0.00 in0.0 mm
01:15 PM 53.0°F11.7°C 34.8°F1.6°C 50% 1.0 mph WSW1.6 kmh WSW 7.1 mph11.4 kmh 30.33 in1027.1 mb 0.00 in0.0 mm 0.00 in0.0 mm 0.00 in0.0 mm
01:30 PM 53.7°F12.1°C 35.5°F1.9°C 50% 1.0 mph NW1.6 kmh NW 3.0 mph4.8 kmh 30.33 in1027.1 mb 0.00 in0.0 mm 0.00 in0.0 mm 0.00 in0.0 mm
01:45 PM 53.8°F12.1°C 34.6°F1.4°C 48% 5.0 mph WSW8.0 kmh WSW 8.1 mph13.0 kmh 30.32 in1026.8 mb 0.00 in0.0 mm 0.00 in0.0 mm 0.00 in0.0 mm
02:00 PM 53.9°F12.2°C 34.1°F1.2°C 47% 4.0 mph W6.4 kmh W 7.1 mph11.4 kmh 30.32 in1026.8 mb 0.00 in0.0 mm 0.00 in0.0 mm 0.00 in0.0 mm
02:15 PM 54.4°F12.4°C 34.6°F1.4°C 47% 1.0 mph WSW1.6 kmh WSW 8.1 mph13.0 kmh 30.32 in1026.8 mb 0.00 in0.0 mm 0.00 in0.0 mm 0.00 in0.0 mm
02:30 PM 54.8°F12.7°C 33.9°F1.1°C 45% 2.0 mph WSW3.2 kmh WSW 4.0 mph6.4 kmh 30.32 in1026.8 mb 0.00 in0.0 mm 0.00 in0.0 mm 0.00 in0.0 mm
02:45 PM 55.2°F12.9°C 35.3°F1.8°C 47% 1.0 mph WSW1.6 kmh WSW 5.1 mph8.2 kmh 30.32 in1026.8 mb 0.00 in0.0 mm 0.00 in0.0 mm 0.00 in0.0 mm
03:00 PM 56.5°F13.6°C 34.3°F1.3°C 43% 3.0 mph SW4.8 kmh SW 9.1 mph14.6 kmh 30.33 in1027.1 mb 0.00 in0.0 mm 0.00 in0.0 mm 0.00 in0.0 mm
03:15 PM 55.7°F13.2°C 34.7°F1.5°C 45% 1.0 mph WSW1.6 kmh WSW 7.1 mph11.4 kmh 30.33 in1027.1 mb 0.00 in0.0 mm 0.00 in0.0 mm 0.00 in0.0 mm
03:30 PM 54.8°F12.7°C 33.9°F1.1°C 45% 3.0 mph WSW4.8 kmh WSW 3.0 mph4.8 kmh 30.34 in1027.4 mb 0.00 in0.0 mm 0.00 in0.0 mm 0.00 in0.0 mm
03:45 PM 54.4°F12.4°C 34.6°F1.4°C 47% 5.0 mph SW8.0 kmh SW 5.1 mph8.2 kmh 30.34 in1027.4 mb 0.00 in0.0 mm 0.00 in0.0 mm 0.00 in0.0 mm
04:00 PM 54.0°F12.2°C 34.7°F1.5°C 48% 2.0 mph SW3.2 kmh SW 3.0 mph4.8 kmh 30.35 in1027.8 mb 0.00 in0.0 mm 0.00 in0.0 mm 0.00 in0.0 mm
04:15 PM 53.7°F12.1°C 34.5°F1.4°C 48% 2.0 mph NW3.2 kmh NW 3.0 mph4.8 kmh 30.36 in1028.1 mb 0.00 in0.0 mm 0.00 in0.0 mm 0.00 in0.0 mm
04:30 PM 53.4°F11.9°C 34.7°F1.5°C 49% 2.0 mph SW3.2 kmh SW 3.0 mph4.8 kmh 30.36 in1028.1 mb 0.00 in0.0 mm 0.00 in0.0 mm 0.00 in0.0 mm
04:45 PM 53.1°F11.7°C 34.4°F1.3°C 49% 2.0 mph WSW3.2 kmh WSW 2.0 mph3.2 kmh 30.37 in1028.4 mb 0.00 in0.0 mm 0.00 in0.0 mm 0.00 in0.0 mm
05:00 PM 52.6°F11.4°C 35.0°F1.7°C 51% Calm Calm 1.0 mph1.6 kmh 30.38 in1028.8 mb 0.00 in0.0 mm 0.00 in0.0 mm 0.00 in0.0 mm
05:15 PM 52.0°F11.1°C 34.4°F1.3°C 51% 2.0 mph N3.2 kmh N 3.0 mph4.8 kmh 30.38 in1028.8 mb 0.00 in0.0 mm 0.00 in0.0 mm 0.00 in0.0 mm
05:30 PM 49.0°F9.4°C 34.9°F1.6°C 58% 4.0 mph NNE6.4 kmh NNE 7.1 mph11.4 kmh 30.39 in1029.1 mb 0.00 in0.0 mm 0.00 in0.0 mm 0.00 in0.0 mm
05:45 PM 47.6°F8.7°C 34.9°F1.6°C 61% 8.0 mph NE12.9 kmh NE 9.1 mph14.6 kmh 30.40 in1029.5 mb 0.00 in0.0 mm 0.00 in0.0 mm 0.00 in0.0 mm
06:00 PM 46.7°F8.2°C 34.8°F1.6°C 63% 5.0 mph NNE8.0 kmh NNE 6.1 mph9.8 kmh 30.41 in1029.8 mb 0.00 in0.0 mm 0.00 in0.0 mm 0.00 in0.0 mm
06:15 PM 46.0°F7.8°C 34.6°F1.4°C 64% 3.0 mph ENE4.8 kmh ENE 10.1 mph16.3 kmh 30.42 in1030.1 mb 0.00 in0.0 mm 0.00 in0.0 mm 0.00 in0.0 mm
06:30 PM 44.9°F7.2°C 33.9°F1.1°C 65% 4.0 mph NNE6.4 kmh NNE 9.1 mph14.6 kmh 30.43 in1030.5 mb 0.00 in0.0 mm 0.00 in0.0 mm 0.00 in0.0 mm
06:45 PM 44.2°F6.8°C 33.2°F0.7°C 65% 10.0 mph NE16.1 kmh NE 10.1 mph16.3 kmh 30.43 in1030.5 mb 0.00 in0.0 mm 0.00 in0.0 mm 0.00 in0.0 mm
07:00 PM 43.7°F6.5°C 33.5°F0.8°C 67% 3.0 mph NE4.8 kmh NE 5.1 mph8.2 kmh 30.43 in1030.5 mb 0.00 in0.0 mm 0.00 in0.0 mm 0.00 in0.0 mm
07:15 PM 43.1°F6.2°C 32.5°F0.3°C 66% 8.0 mph NNE12.9 kmh NNE 9.1 mph14.6 kmh 30.44 in1030.8 mb 0.00 in0.0 mm 0.00 in0.0 mm 0.00 in0.0 mm
07:30 PM 42.6°F5.9°C 31.7°F-0.2°C 65% 7.0 mph NNE11.3 kmh NNE 7.1 mph11.4 kmh 30.45 in1031.2 mb 0.00 in0.0 mm 0.00 in0.0 mm 0.00 in0.0 mm
07:45 PM 41.9°F5.5°C 30.6°F-0.8°C 64% 3.0 mph E4.8 kmh E 7.1 mph11.4 kmh 30.46 in1031.5 mb 0.00 in0.0 mm 0.00 in0.0 mm 0.00 in0.0 mm
08:00 PM 41.1°F5.1°C 30.3°F-0.9°C 65% 7.0 mph ENE11.3 kmh ENE 8.1 mph13.0 kmh 30.46 in1031.5 mb 0.00 in0.0 mm 0.00 in0.0 mm 0.00 in0.0 mm
08:15 PM 40.2°F4.6°C 29.8°F-1.2°C 66% 2.0 mph NNE3.2 kmh NNE 4.0 mph6.4 kmh 30.46 in1031.5 mb 0.00 in0.0 mm 0.00 in0.0 mm 0.00 in0.0 mm
08:30 PM 39.4°F4.1°C 29.0°F-1.7°C 66% 4.0 mph NE6.4 kmh NE 8.1 mph13.0 kmh 30.45 in1031.2 mb 0.00 in0.0 mm 0.00 in0.0 mm 0.00 in0.0 mm
08:45 PM 38.8°F3.8°C 28.8°F-1.8°C 67% 1.0 mph NE1.6 kmh NE 4.0 mph6.4 kmh 30.45 in1031.2 mb 0.00 in0.0 mm 0.00 in0.0 mm 0.00 in0.0 mm
09:00 PM 38.3°F3.5°C 28.3°F-2.1°C 67% 5.0 mph NE8.0 kmh NE 11.1 mph17.9 kmh 30.45 in1031.2 mb 0.00 in0.0 mm 0.00 in0.0 mm 0.00 in0.0 mm
09:15 PM 37.8°F3.2°C 28.2°F-2.1°C 68% 2.0 mph ESE3.2 kmh ESE 8.1 mph13.0 kmh 30.45 in1031.2 mb 0.00 in0.0 mm 0.00 in0.0 mm 0.00 in0.0 mm
09:30 PM 37.2°F2.9°C 28.3°F-2.1°C 70% 7.0 mph E11.3 kmh E 7.1 mph11.4 kmh 30.45 in1031.2 mb 0.00 in0.0 mm 0.00 in0.0 mm 0.00 in0.0 mm
09:45 PM 36.9°F2.7°C 28.4°F-2.0°C 71% 3.0 mph E4.8 kmh E 3.0 mph4.8 kmh 30.45 in1031.2 mb 0.00 in0.0 mm 0.00 in0.0 mm 0.00 in0.0 mm
10:00 PM 36.4°F2.4°C 28.2°F-2.1°C 72% 5.0 mph E8.0 kmh E 7.1 mph11.4 kmh 30.46 in1031.5 mb 0.00 in0.0 mm 0.00 in0.0 mm 0.00 in0.0 mm
10:15 PM 36.1°F2.3°C 28.3°F-2.1°C 73% 5.0 mph E8.0 kmh E 5.1 mph8.2 kmh 30.46 in1031.5 mb 0.00 in0.0 mm 0.00 in0.0 mm 0.00 in0.0 mm
10:30 PM 36.0°F2.2°C 28.2°F-2.1°C 73% 1.0 mph ENE1.6 kmh ENE 6.1 mph9.8 kmh 30.45 in1031.2 mb 0.00 in0.0 mm 0.00 in0.0 mm 0.00 in0.0 mm
10:45 PM 36.0°F2.2°C 28.5°F-1.9°C 74% 1.0 mph ESE1.6 kmh ESE 4.0 mph6.4 kmh 30.45 in1031.2 mb 0.00 in0.0 mm 0.00 in0.0 mm 0.00 in0.0 mm
11:00 PM 36.3°F2.4°C 28.1°F-2.2°C 72% 6.0 mph ESE9.7 kmh ESE 7.1 mph11.4 kmh 30.46 in1031.5 mb 0.00 in0.0 mm 0.00 in0.0 mm 0.00 in0.0 mm
11:15 PM 36.3°F2.4°C 28.1°F-2.2°C 72% 10.0 mph E16.1 kmh E 10.1 mph16.3 kmh 30.46 in1031.5 mb 0.00 in0.0 mm 0.00 in0.0 mm 0.00 in0.0 mm
11:30 PM 36.3°F2.4°C 27.8°F-2.3°C 71% 6.0 mph ENE9.7 kmh ENE 10.1 mph16.3 kmh 30.46 in1031.5 mb 0.00 in0.0 mm 0.00 in0.0 mm 0.00 in0.0 mm
11:45 PM 36.3°F2.4°C 27.5°F-2.5°C 70% 4.0 mph E6.4 kmh E 9.1 mph14.6 kmh 30.45 in1031.2 mb 0.00 in0.0 mm 0.00 in0.0 mm 0.00 in0.0 mm